Time;durP1;ratioP1;P1;durP2;ratioP2;P2;SDS_P1;SDS_P2;PMS_P1;PMS_P2;Temp;Humidity;BMP_temperature;BMP_pressure;BME280_temperature;BME280_humidity;BME280_pressure;Samples;Min_cycle;Max_cycle;Signal;HPM_P1;HPM_P2
2022/05/13 00:01:53;;;;;;;5.82;1.13;;;11.10;99.90;;;;;;4961062;28;20035;-91
2022/05/13 00:04:19;;;;;;;7.65;1.30;;;11.10;99.90;;;;;;4961255;28;20532;-91
2022/05/13 00:06:45;;;;;;;10.52;1.80;;;11.10;99.90;;;;;;4960611;28;20031;-91
2022/05/13 00:09:11;;;;;;;7.07;1.23;;;11.10;99.90;;;;;;4959956;28;20034;-90
2022/05/13 00:11:37;;;;;;;4.53;1.30;;;11.10;99.90;;;;;;4959735;28;20027;-90
2022/05/13 00:14:04;;;;;;;5.05;1.20;;;11.10;99.90;;;;;;4959804;28;20488;-88
2022/05/13 00:16:30;;;;;;;7.85;1.42;;;11.10;99.90;;;;;;4959613;28;20038;-89
2022/05/13 00:18:57;;;;;;;5.38;1.13;;;11.20;99.90;;;;;;4960336;28;20046;-90
2022/05/13 00:21:23;;;;;;;9.55;1.58;;;11.10;99.90;;;;;;4959287;28;20027;-89
2022/05/13 00:23:48;;;;;;;5.05;2.13;;;11.20;99.90;;;;;;4959724;28;20033;-89
2022/05/13 00:26:14;;;;;;;5.85;1.42;;;11.20;99.90;;;;;;4959712;28;20495;-90
2022/05/13 00:28:40;;;;;;;4.13;1.08;;;11.20;99.90;;;;;;4959939;28;20055;-90
2022/05/13 00:31:05;;;;;;;5.82;1.30;;;11.20;99.90;;;;;;4959993;28;20023;-89
2022/05/13 00:33:32;;;;;;;9.95;1.25;;;11.10;99.90;;;;;;4959511;28;20137;-89
2022/05/13 00:35:58;;;;;;;10.70;1.83;;;11.20;99.90;;;;;;4959945;28;20505;-89
2022/05/13 00:38:24;;;;;;;7.70;1.50;;;11.20;99.90;;;;;;4959298;28;20098;-91
2022/05/13 00:40:49;;;;;;;6.93;1.67;;;11.10;99.90;;;;;;4958932;28;20026;-92
2022/05/13 00:43:41;;;;;;;7.13;1.27;;;11.10;99.90;;;;;;4959338;28;20050;-91
2022/05/13 00:46:07;;;;;;;7.68;1.92;;;11.10;99.90;;;;;;4959196;28;20555;-92
2022/05/13 00:48:33;;;;;;;9.05;1.90;;;11.10;99.90;;;;;;4975953;28;20136;-91
2022/05/13 00:51:05;;;;;;;6.43;1.30;;;11.10;99.90;;;;;;4959117;28;20035;-90
2022/05/13 00:53:32;;;;;;;5.32;1.42;;;11.10;99.90;;;;;;4959121;28;20023;-90
2022/05/13 00:55:59;;;;;;;8.60;1.50;;;11.10;99.90;;;;;;4958005;28;20060;-89
2022/05/13 00:58:26;;;;;;;5.38;1.40;;;11.10;99.90;;;;;;4958496;28;20026;-88
2022/05/13 01:00:52;;;;;;;8.63;1.40;;;11.10;99.90;;;;;;4958454;28;20026;-88
2022/05/13 01:03:17;;;;;;;6.75;1.40;;;11.10;99.90;;;;;;4958390;28;20035;-92
2022/05/13 01:05:47;;;;;;;10.45;1.52;;;11.10;99.90;;;;;;4958691;28;20070;-88
2022/05/13 01:08:13;;;;;;;10.50;1.60;;;11.10;99.90;;;;;;4958722;28;20026;-88
2022/05/13 01:10:40;;;;;;;10.00;2.88;;;11.10;99.90;;;;;;4958781;28;20420;-90
2022/05/13 01:13:10;;;;;;;6.57;1.63;;;11.10;99.90;;;;;;4958751;28;20034;-89
2022/05/13 01:15:40;;;;;;;6.60;1.58;;;11.10;99.90;;;;;;4958333;28;20034;-91
2022/05/13 01:18:07;;;;;;;8.98;1.50;;;11.10;99.90;;;;;;4962872;28;20069;-90
2022/05/13 01:20:47;;;;;;;10.23;1.58;;;11.10;99.90;;;;;;4964854;28;20094;-91
2022/05/13 01:23:17;;;;;;;10.30;2.20;;;11.10;99.90;;;;;;4959522;28;20023;-91
2022/05/13 01:25:50;;;;;;;6.55;1.60;;;11.10;99.90;;;;;;4961009;28;20039;-91
2022/05/13 01:28:43;;;;;;;13.65;1.88;;;11.10;99.90;;;;;;4963946;28;20034;-90
2022/05/13 01:31:12;;;;;;;8.93;2.33;;;11.10;99.90;;;;;;4960252;28;20045;-90
2022/05/13 01:33:40;;;;;;;8.63;2.05;;;11.10;99.90;;;;;;4958545;28;20055;-91
2022/05/13 01:36:07;;;;;;;7.38;1.52;;;11.10;99.90;;;;;;4958241;28;20396;-91
2022/05/13 01:38:38;;;;;;;9.25;1.95;;;11.10;99.90;;;;;;4958295;28;20176;-92
2022/05/13 01:41:06;;;;;;;7.93;1.27;;;11.10;99.90;;;;;;4958123;28;20481;-91
2022/05/13 01:43:34;;;;;;;5.97;1.58;;;11.10;99.90;;;;;;4957809;28;20058;-91
2022/05/13 01:46:01;;;;;;;10.55;1.55;;;11.10;99.90;;;;;;4957757;28;20042;-90
2022/05/13 01:48:28;;;;;;;8.25;1.90;;;11.10;99.90;;;;;;4957839;28;20089;-91
2022/05/13 01:50:54;;;;;;;5.68;1.50;;;11.10;99.90;;;;;;4957691;28;20034;-91
2022/05/13 01:53:20;;;;;;;8.02;1.73;;;11.10;99.90;;;;;;4958016;28;20027;-91
2022/05/13 01:55:47;;;;;;;8.52;1.63;;;11.00;99.90;;;;;;4957973;28;20110;-90
2022/05/13 01:58:16;;;;;;;5.70;1.40;;;11.00;99.90;;;;;;4957399;28;20137;-90
2022/05/13 02:00:43;;;;;;;7.47;1.55;;;11.10;99.90;;;;;;4957732;28;20091;-91
2022/05/13 02:05:54;;;;;;;10.18;1.90;;;11.10;99.90;;;;;;4974417;28;20058;-91
2022/05/13 02:08:20;;;;;;;8.10;1.35;;;11.10;99.90;;;;;;4957399;28;20432;-89
2022/05/13 02:10:45;;;;;;;6.43;1.35;;;11.10;99.90;;;;;;4957209;28;20027;-90
2022/05/13 02:13:13;;;;;;;11.40;1.80;;;11.10;99.90;;;;;;4957154;28;20026;-92
2022/05/13 02:15:39;;;;;;;9.75;1.50;;;11.10;99.90;;;;;;4957071;28;20030;-91
2022/05/13 02:18:07;;;;;;;12.45;2.03;;;11.10;99.90;;;;;;4956947;28;20034;-90
2022/05/13 02:20:33;;;;;;;8.30;1.98;;;11.10;99.90;;;;;;4956882;28;20092;-90
2022/05/13 02:22:58;;;;;;;8.82;1.58;;;11.10;99.90;;;;;;4956968;28;20499;-90
2022/05/13 02:25:25;;;;;;;9.80;1.90;;;11.10;99.90;;;;;;4960310;28;20058;-91
2022/05/13 02:27:51;;;;;;;9.00;1.50;;;11.10;99.90;;;;;;4961862;28;20030;-89
2022/05/13 02:30:17;;;;;;;11.55;1.85;;;11.10;99.90;;;;;;4962134;28;20031;-91
2022/05/13 02:32:43;;;;;;;11.75;1.77;;;11.00;99.90;;;;;;4957159;28;20031;-89
2022/05/13 02:35:09;;;;;;;6.05;1.52;;;11.10;99.90;;;;;;4956419;28;20492;-92
2022/05/13 02:37:35;;;;;;;9.23;1.70;;;11.00;99.90;;;;;;4956761;28;20034;-92
2022/05/13 02:40:01;;;;;;;7.95;2.30;;;11.00;99.90;;;;;;4956644;28;20066;-92
2022/05/13 02:42:28;;;;;;;10.13;2.42;;;11.00;99.90;;;;;;4956700;28;20054;-91
2022/05/13 02:44:53;;;;;;;9.07;1.95;;;11.00;99.90;;;;;;4957027;28;20027;-90
2022/05/13 02:47:19;;;;;;;6.10;1.90;;;11.00;99.90;;;;;;4976153;28;20044;-92
2022/05/13 02:49:45;;;;;;;9.00;1.70;;;11.00;99.90;;;;;;4976277;28;20027;-90
2022/05/13 02:52:11;;;;;;;8.63;1.60;;;11.00;99.90;;;;;;4976974;28;20462;-90
2022/05/13 02:54:37;;;;;;;8.38;1.45;;;11.00;99.90;;;;;;4975954;28;20027;-92
2022/05/13 02:57:03;;;;;;;10.10;1.52;;;11.00;99.90;;;;;;4975810;28;20030;-91
2022/05/13 02:59:29;;;;;;;9.55;1.70;;;11.00;99.90;;;;;;4975903;28;20023;-92
2022/05/13 03:01:57;;;;;;;6.95;1.77;;;11.00;99.90;;;;;;4976031;28;20042;-91
2022/05/13 03:04:23;;;;;;;6.80;1.90;;;11.00;99.90;;;;;;4976214;28;20043;-90
2022/05/13 03:06:51;;;;;;;10.88;1.65;;;11.00;99.90;;;;;;4976725;28;20030;-91
2022/05/13 03:09:17;;;;;;;8.38;1.60;;;11.00;99.90;;;;;;4977543;28;20033;-91
2022/05/13 03:11:43;;;;;;;15.10;2.33;;;11.00;99.90;;;;;;4983660;28;20364;-90
2022/05/13 03:14:09;;;;;;;14.77;2.15;;;11.00;99.90;;;;;;4982904;28;20054;-91
2022/05/13 03:16:36;;;;;;;11.40;2.28;;;11.00;99.90;;;;;;4977324;28;20101;-90
2022/05/13 03:19:03;;;;;;;6.38;1.90;;;11.00;99.90;;;;;;4978272;28;20049;-92
2022/05/13 03:21:28;;;;;;;12.68;2.03;;;11.00;99.90;;;;;;4980459;28;20026;-91
2022/05/13 03:23:55;;;;;;;15.07;2.03;;;11.00;99.90;;;;;;4980300;28;20026;-90
2022/05/13 03:26:22;;;;;;;11.48;2.13;;;11.00;99.90;;;;;;4980875;28;20034;-90
2022/05/13 03:28:48;;;;;;;10.73;2.53;;;10.90;99.90;;;;;;4980467;28;20046;-91
2022/05/13 03:31:14;;;;;;;10.90;1.67;;;10.90;99.90;;;;;;4980123;28;20081;-90
2022/05/13 03:33:40;;;;;;;8.43;2.20;;;11.00;99.90;;;;;;4980011;28;20034;-90
2022/05/13 03:36:09;;;;;;;13.35;3.67;;;10.90;99.90;;;;;;4980151;28;20115;-91
2022/05/13 03:38:35;;;;;;;12.68;2.25;;;10.90;99.90;;;;;;4980089;28;20053;-91
2022/05/13 03:41:01;;;;;;;13.52;2.15;;;10.90;99.90;;;;;;4979731;28;20436;-90
2022/05/13 03:43:26;;;;;;;13.35;2.53;;;10.90;99.90;;;;;;4980095;28;20050;-89
2022/05/13 03:45:52;;;;;;;14.45;2.28;;;10.90;99.90;;;;;;4979605;28;20045;-90
2022/05/13 03:48:18;;;;;;;12.73;2.50;;;10.90;99.90;;;;;;4979746;28;20037;-89
2022/05/13 03:50:45;;;;;;;15.68;2.55;;;10.90;99.90;;;;;;4979175;28;20033;-90
2022/05/13 03:53:11;;;;;;;11.38;2.03;;;10.90;99.90;;;;;;4979019;28;20022;-91
2022/05/13 03:55:37;;;;;;;14.15;2.22;;;11.00;99.90;;;;;;4979109;28;20026;-90
2022/05/13 03:58:04;;;;;;;11.85;2.10;;;10.90;99.90;;;;;;4979004;28;20069;-89
2022/05/13 04:00:30;;;;;;;10.02;2.10;;;10.90;99.90;;;;;;4979179;28;20066;-90
2022/05/13 04:02:55;;;;;;;12.48;2.67;;;10.90;99.90;;;;;;4979349;28;20487;-91
2022/05/13 04:10:50;;;;;;;12.95;2.70;;;10.90;99.90;;;;;;4996686;28;20041;-90
2022/05/13 04:16:04;;;;;;;6.40;1.90;;;10.90;99.90;;;;;;4996840;28;20070;-91
2022/05/13 04:18:34;;;;;;;10.50;2.17;;;11.00;99.90;;;;;;4963313;28;20030;-89
2022/05/13 04:21:00;;;;;;;10.75;3.35;;;11.00;99.90;;;;;;4979024;28;20133;-90
2022/05/13 04:23:27;;;;;;;10.43;2.72;;;11.00;99.90;;;;;;4979385;28;20085;-90
2022/05/13 04:25:52;;;;;;;12.05;2.53;;;11.00;99.90;;;;;;4980043;28;20034;-90
2022/05/13 04:28:18;;;;;;;14.13;2.08;;;11.00;99.90;;;;;;4980019;28;20030;-89
2022/05/13 04:30:44;;;;;;;14.75;2.60;;;11.00;99.90;;;;;;4980661;28;20491;-90
2022/05/13 04:33:14;;;;;;;12.55;2.35;;;11.00;99.90;;;;;;4984368;28;20022;-89
2022/05/13 04:35:40;;;;;;;17.52;2.67;;;11.00;99.90;;;;;;4987750;28;20135;-89
2022/05/13 04:38:06;;;;;;;12.43;1.90;;;11.00;99.90;;;;;;4991792;28;20443;-91
2022/05/13 04:40:32;;;;;;;9.80;1.98;;;11.00;99.90;;;;;;4997861;28;20053;-91
2022/05/13 04:42:58;;;;;;;10.48;2.33;;;11.00;99.90;;;;;;4994688;28;20033;-90
2022/05/13 04:45:29;;;;;;;13.15;2.35;;;10.90;99.90;;;;;;4986916;28;20072;-89
2022/05/13 04:48:16;;;;;;;13.05;2.95;;;10.90;99.90;;;;;;4983368;28;20034;-89
2022/05/13 04:50:54;;;;;;;12.75;3.40;;;10.90;99.90;;;;;;4982870;28;20026;-88
2022/05/13 04:53:22;;;;;;;9.98;1.88;;;10.90;99.90;;;;;;4984154;28;20037;-89
2022/05/13 04:55:49;;;;;;;10.63;2.85;;;10.90;99.90;;;;;;4981096;28;20027;-89
2022/05/13 04:58:16;;;;;;;16.92;2.90;;;10.90;99.90;;;;;;4980196;28;20104;-89
2022/05/13 05:00:42;;;;;;;9.45;2.38;;;10.80;99.90;;;;;;4980089;28;20031;-89
2022/05/13 05:03:08;;;;;;;11.30;2.22;;;10.80;99.90;;;;;;4980623;28;20041;-90
2022/05/13 05:05:34;;;;;;;10.70;2.20;;;10.90;99.90;;;;;;4982245;28;20037;-88
2022/05/13 05:08:00;;;;;;;9.32;1.73;;;10.80;99.90;;;;;;4986602;28;20546;-90
2022/05/13 05:10:27;;;;;;;14.77;2.25;;;10.90;99.90;;;;;;4980098;28;20030;-89
2022/05/13 05:12:57;;;;;;;9.73;1.92;;;10.90;99.90;;;;;;4979817;28;20018;-91
2022/05/13 05:15:24;;;;;;;13.30;2.20;;;10.90;99.90;;;;;;4974443;28;20038;-91
2022/05/13 05:17:50;;;;;;;12.85;2.25;;;10.90;99.90;;;;;;4979681;28;20023;-88
2022/05/13 05:20:16;;;;;;;13.63;2.83;;;10.90;99.90;;;;;;4981536;28;20064;-89
2022/05/13 05:22:46;;;;;;;14.48;2.47;;;10.90;99.90;;;;;;4982961;28;20030;-89
2022/05/13 05:25:13;;;;;;;11.43;2.30;;;11.00;99.90;;;;;;4982108;28;20535;-91
2022/05/13 05:27:39;;;;;;;12.68;2.63;;;11.00;99.90;;;;;;4967136;28;20023;-91
2022/05/13 05:30:06;;;;;;;14.32;2.03;;;11.00;99.90;;;;;;4964476;28;20031;-92
2022/05/13 05:32:32;;;;;;;12.30;2.75;;;11.00;99.90;;;;;;4963663;28;20030;-91
2022/05/13 05:34:59;;;;;;;9.65;2.03;;;11.00;99.90;;;;;;4971841;28;20081;-91
2022/05/13 05:37:25;;;;;;;13.75;2.83;;;11.00;99.90;;;;;;4975745;28;20077;-91
2022/05/13 05:39:50;;;;;;;15.60;2.95;;;11.10;99.90;;;;;;4975349;28;20484;-92
2022/05/13 05:42:16;;;;;;;13.23;2.47;;;11.10;99.90;;;;;;4974720;28;20026;-91
2022/05/13 05:44:42;;;;;;;20.80;2.30;;;11.00;99.90;;;;;;4975135;28;20388;-91
2022/05/13 05:47:07;;;;;;;11.75;2.20;;;11.10;99.90;;;;;;4975554;28;20038;-91
2022/05/13 05:49:34;;;;;;;15.25;2.50;;;11.10;99.90;;;;;;4974964;28;20026;-90
2022/05/13 05:51:59;;;;;;;12.98;3.17;;;11.10;99.90;;;;;;4974272;28;20053;-90
2022/05/13 05:57:15;;;;;;;14.05;2.38;;;11.10;99.90;;;;;;4974172;28;20058;-91
2022/05/13 05:59:46;;;;;;;9.48;1.85;;;11.10;99.90;;;;;;4974798;28;20038;-90
2022/05/13 06:02:12;;;;;;;14.23;2.30;;;11.10;99.90;;;;;;4974660;28;20094;-90
2022/05/13 06:04:39;;;;;;;17.15;2.65;;;11.10;99.90;;;;;;4974862;28;20034;-92
2022/05/13 06:07:11;;;;;;;9.65;2.47;;;11.10;99.90;;;;;;4974185;28;20055;-91
2022/05/13 06:09:38;;;;;;;12.20;2.83;;;11.10;99.90;;;;;;4972451;28;20086;-91
2022/05/13 06:12:07;;;;;;;17.40;3.40;;;11.20;99.90;;;;;;4974637;28;20072;-91
2022/05/13 06:14:33;;;;;;;6.70;2.10;;;11.20;99.90;;;;;;4974092;28;20035;-90
2022/05/13 06:16:59;;;;;;;9.52;2.15;;;11.20;99.90;;;;;;4974530;28;20078;-90
2022/05/13 06:19:27;;;;;;;16.23;2.42;;;11.20;99.90;;;;;;4973752;28;20488;-91
2022/05/13 06:21:53;;;;;;;19.60;2.72;;;11.20;99.90;;;;;;4973934;28;20054;-92
2022/05/13 06:24:19;;;;;;;12.85;2.67;;;11.20;99.90;;;;;;4974400;28;20057;-92
2022/05/13 06:26:48;;;;;;;13.45;2.67;;;11.20;99.90;;;;;;4974263;28;20031;-91
2022/05/13 06:29:14;;;;;;;15.98;2.60;;;11.30;99.90;;;;;;4974490;28;20038;-91
2022/05/13 06:31:40;;;;;;;17.25;2.95;;;11.30;99.90;;;;;;4973848;28;20092;-92
2022/05/13 06:34:06;;;;;;;18.85;2.92;;;11.30;99.90;;;;;;4970026;28;20051;-92
2022/05/13 06:36:33;;;;;;;15.73;2.65;;;11.30;99.90;;;;;;4968394;28;20603;-91
2022/05/13 06:38:59;;;;;;;15.73;2.70;;;11.30;99.90;;;;;;4963124;28;20087;-91
2022/05/13 06:41:25;;;;;;;17.42;2.88;;;11.40;99.90;;;;;;4966469;28;20122;-91
2022/05/13 06:43:51;;;;;;;17.35;3.15;;;11.40;99.90;;;;;;4963391;28;20026;-92
2022/05/13 06:46:17;;;;;;;18.90;3.25;;;11.40;99.90;;;;;;4966381;28;20150;-91
2022/05/13 06:48:42;;;;;;;16.10;2.90;;;11.40;99.90;;;;;;4965706;28;20050;-90
2022/05/13 06:51:08;;;;;;;14.05;3.28;;;11.40;99.90;;;;;;4964118;28;20145;-92
2022/05/13 06:53:34;;;;;;;19.17;3.25;;;11.50;99.90;;;;;;4965655;28;20058;-92
2022/05/13 06:55:59;;;;;;;15.57;3.30;;;11.50;99.90;;;;;;4967952;28;20038;-92
2022/05/13 06:58:27;;;;;;;16.30;2.67;;;11.60;99.90;;;;;;4968278;28;20086;-91
2022/05/13 07:00:52;;;;;;;13.38;2.70;;;11.60;99.90;;;;;;4984331;28;20026;-91
2022/05/13 07:03:19;;;;;;;14.98;2.50;;;11.70;99.90;;;;;;4973473;28;20051;-91
2022/05/13 07:05:45;;;;;;;11.77;2.78;;;11.70;99.90;;;;;;4963566;28;20105;-95
2022/05/13 07:08:11;;;;;;;16.88;2.80;;;11.80;99.90;;;;;;4964224;28;20027;-94
2022/05/13 07:10:39;;;;;;;14.55;2.47;;;11.80;99.90;;;;;;4966152;28;20027;-94
2022/05/13 07:13:09;;;;;;;24.85;3.55;;;11.80;99.90;;;;;;4961481;28;20023;-92
2022/05/13 07:15:35;;;;;;;14.40;2.78;;;11.90;99.90;;;;;;4968060;28;20476;-94
2022/05/13 07:18:01;;;;;;;23.23;3.45;;;11.90;99.90;;;;;;4968991;28;20484;-93
2022/05/13 07:20:28;;;;;;;14.52;2.47;;;11.90;99.90;;;;;;4977514;28;20019;-91
2022/05/13 07:22:55;;;;;;;18.83;4.10;;;11.90;99.90;;;;;;4968976;28;20409;-95
2022/05/13 07:25:20;;;;;;;16.65;3.60;;;11.90;99.90;;;;;;4962059;28;20072;-95
2022/05/13 07:27:46;;;;;;;17.02;2.20;;;11.90;99.90;;;;;;4960705;28;20027;-92
2022/05/13 07:30:15;;;;;;;17.60;3.15;;;11.90;99.90;;;;;;4972978;28;20062;-91
2022/05/13 07:32:40;;;;;;;16.52;2.40;;;11.90;99.90;;;;;;4960645;28;20030;-93
2022/05/13 07:35:08;;;;;;;14.18;2.67;;;11.90;99.90;;;;;;4967407;28;20047;-92
2022/05/13 07:37:34;;;;;;;17.13;3.13;;;11.90;99.90;;;;;;4960736;28;20035;-90
2022/05/13 07:42:44;;;;;;;21.25;4.57;;;11.90;99.90;;;;;;4977287;28;20042;-92
2022/05/13 07:45:10;;;;;;;12.15;2.60;;;12.00;99.90;;;;;;4957052;28;20034;-92
2022/05/13 07:47:39;;;;;;;23.75;3.08;;;12.00;99.90;;;;;;4961314;28;20705;-91
2022/05/13 07:50:06;;;;;;;14.35;2.65;;;12.10;99.90;;;;;;4950540;28;20053;-93
2022/05/13 07:52:31;;;;;;;9.90;2.08;;;12.10;99.90;;;;;;4954944;28;20022;-91
2022/05/13 07:54:57;;;;;;;13.68;2.35;;;12.20;99.90;;;;;;4948506;28;20042;-91
2022/05/13 07:57:23;;;;;;;25.20;2.88;;;12.20;99.90;;;;;;4950570;28;20035;-93
2022/05/13 08:02:32;;;;;;;23.42;4.05;;;12.30;99.90;;;;;;4966913;28;20134;-90
2022/05/13 08:04:58;;;;;;;16.45;2.70;;;12.30;99.90;;;;;;4946264;29;20505;-92
2022/05/13 08:07:24;;;;;;;10.38;2.75;;;12.30;99.90;;;;;;4949727;28;20465;-91
2022/05/13 08:09:50;;;;;;;15.45;2.50;;;12.30;99.90;;;;;;4970631;28;20027;-94
2022/05/13 08:12:15;;;;;;;24.50;3.50;;;12.40;99.90;;;;;;4976743;28;20066;-90
2022/05/13 08:14:41;;;;;;;22.60;2.65;;;12.40;99.90;;;;;;4969374;28;20079;-92
2022/05/13 08:17:07;;;;;;;12.15;3.10;;;12.40;99.90;;;;;;4968125;28;20019;-92
2022/05/13 08:19:33;;;;;;;16.17;2.95;;;12.50;99.90;;;;;;4961610;28;20038;-91
2022/05/13 08:21:59;;;;;;;17.55;3.00;;;12.50;99.90;;;;;;4960778;28;20061;-91
2022/05/13 08:24:25;;;;;;;16.55;2.95;;;12.60;99.90;;;;;;4951701;28;20035;-91
2022/05/13 08:26:51;;;;;;;19.58;3.25;;;12.60;99.90;;;;;;4948451;28;20117;-90
2022/05/13 08:29:17;;;;;;;17.23;3.30;;;12.70;99.90;;;;;;4949686;28;20019;-91
2022/05/13 08:31:42;;;;;;;21.23;2.88;;;12.70;99.90;;;;;;4949473;28;20026;-93
2022/05/13 08:34:09;;;;;;;7.47;2.35;;;12.80;99.90;;;;;;4962802;28;20034;-91
2022/05/13 08:36:34;;;;;;;14.52;3.38;;;12.80;99.90;;;;;;4978650;28;20484;-91
2022/05/13 08:39:00;;;;;;;17.33;3.28;;;12.80;99.90;;;;;;4979399;28;20152;-93
2022/05/13 08:41:57;;;;;;;12.82;2.20;;;12.90;99.90;;;;;;4978667;28;20041;-89
2022/05/13 08:44:25;;;;;;;18.95;2.85;;;12.90;99.90;;;;;;4977723;28;20332;-90
2022/05/13 08:46:56;;;;;;;19.30;2.53;;;12.90;99.90;;;;;;4977662;28;20062;-91
2022/05/13 08:49:35;;;;;;;19.38;3.50;;;13.00;99.90;;;;;;4978481;28;20033;-90
2022/05/13 08:55:20;;;;;;;19.23;3.40;;;13.00;99.90;;;;;;5007026;28;20057;-95
2022/05/13 08:57:48;;;;;;;18.13;3.03;;;13.10;99.90;;;;;;4957915;28;20031;-92
2022/05/13 09:00:28;;;;;;;10.05;2.50;;;13.10;99.90;;;;;;4976297;28;20165;-90
2022/05/13 09:03:09;;;;;;;17.25;3.42;;;13.10;99.90;;;;;;4981311;28;20026;-93
2022/05/13 09:05:49;;;;;;;14.35;2.40;;;13.20;99.90;;;;;;4977894;28;20045;-91
2022/05/13 09:08:14;;;;;;;12.05;2.30;;;13.20;99.90;;;;;;4979781;28;20042;-92
2022/05/13 09:11:21;;;;;;;19.67;3.67;;;13.20;99.90;;;;;;5000107;28;20033;-93
2022/05/13 09:14:11;;;;;;;14.32;2.55;;;13.30;99.50;;;;;;4986422;28;20041;-90
2022/05/13 09:16:55;;;;;;;9.90;2.70;;;13.30;99.40;;;;;;4992793;28;20502;-91
2022/05/13 09:19:43;;;;;;;23.77;2.88;;;13.40;99.80;;;;;;4985739;28;20033;-91
2022/05/13 09:22:12;;;;;;;16.67;2.35;;;13.50;99.30;;;;;;4982985;28;20031;-92
2022/05/13 09:24:39;;;;;;;23.05;3.30;;;13.50;98.80;;;;;;4984218;28;20033;-91
2022/05/13 09:27:04;;;;;;;11.25;2.63;;;13.50;98.80;;;;;;4983641;28;20033;-91
2022/05/13 09:29:43;;;;;;;14.00;3.45;;;13.50;98.60;;;;;;4983270;28;20035;-93
2022/05/13 09:32:29;;;;;;;8.13;2.00;;;13.50;98.70;;;;;;4981819;28;20022;-93
2022/05/13 09:35:10;;;;;;;16.92;2.70;;;13.60;98.60;;;;;;4980273;28;20050;-92
2022/05/13 09:37:41;;;;;;;17.98;3.63;;;13.60;98.40;;;;;;4998380;28;20030;-92
2022/05/13 09:40:34;;;;;;;19.60;2.70;;;13.70;98.20;;;;;;4981038;28;20057;-92
2022/05/13 09:43:00;;;;;;;16.40;2.38;;;13.70;98.30;;;;;;4976938;28;20587;-91
2022/05/13 09:45:33;;;;;;;19.92;3.30;;;13.70;98.30;;;;;;4980137;28;20057;-92
2022/05/13 09:48:09;;;;;;;17.10;2.63;;;13.70;98.30;;;;;;4980268;28;20034;-92
2022/05/13 09:50:44;;;;;;;23.73;3.08;;;13.80;98.20;;;;;;4979655;28;20049;-91
2022/05/13 09:53:15;;;;;;;22.15;3.25;;;13.80;97.50;;;;;;4979506;28;20084;-92
2022/05/13 09:55:43;;;;;;;16.83;3.67;;;13.80;97.40;;;;;;4980006;28;20056;-91
2022/05/13 09:58:23;;;;;;;17.80;2.88;;;13.80;97.40;;;;;;4979982;28;20029;-92
2022/05/13 10:00:52;;;;;;;20.42;2.80;;;13.90;97.30;;;;;;4979430;28;20539;-91
2022/05/13 10:03:22;;;;;;;20.67;2.60;;;13.90;97.20;;;;;;4979839;28;20026;-92
2022/05/13 10:06:16;;;;;;;18.80;3.00;;;14.00;97.00;;;;;;4979343;28;20035;-92
2022/05/13 10:08:56;;;;;;;7.80;2.20;;;14.00;96.90;;;;;;4979278;28;20050;-91
2022/05/13 10:14:44;;;;;;;13.73;3.03;;;14.10;96.50;;;;;;4996617;28;20058;-92
2022/05/13 10:17:26;;;;;;;26.23;3.33;;;14.10;96.20;;;;;;4959690;28;20109;-92
2022/05/13 10:20:01;;;;;;;10.40;2.22;;;14.10;95.60;;;;;;4978458;28;20022;-92
2022/05/13 10:22:41;;;;;;;16.17;3.03;;;14.10;95.10;;;;;;4983008;28;20554;-91
2022/05/13 10:25:45;;;;;;;12.98;2.22;;;14.10;94.60;;;;;;4986599;28;20351;-91
2022/05/13 10:28:15;;;;;;;17.60;2.95;;;14.10;94.50;;;;;;4986109;28;20038;-90
2022/05/13 10:30:56;;;;;;;10.75;2.72;;;14.10;94.40;;;;;;4974821;28;20022;-92
2022/05/13 10:33:24;;;;;;;;;;;14.10;94.10;;;;;;4977762;28;20049;-91
2022/05/13 10:36:17;;;;;;;18.55;3.53;;;14.10;94.00;;;;;;4994665;28;19941;-92
2022/05/13 10:39:05;;;;;;;12.88;2.25;;;14.20;93.80;;;;;;4977233;28;20039;-92
2022/05/13 10:41:47;;;;;;;17.25;2.88;;;14.20;93.50;;;;;;4977708;28;20029;-92
2022/05/13 10:44:51;;;;;;;12.63;2.55;;;14.20;93.40;;;;;;4978138;28;20092;-93
2022/05/13 10:47:24;;;;;;;14.02;2.45;;;14.20;93.40;;;;;;4984728;28;20045;-93
2022/05/13 10:49:50;;;;;;;15.45;2.60;;;14.30;93.50;;;;;;4986613;28;20033;-92
2022/05/13 10:52:21;;;;;;;12.88;2.38;;;14.30;93.50;;;;;;4987485;28;20026;-94
2022/05/13 10:55:18;;;;;;;24.77;4.20;;;14.40;93.60;;;;;;4989201;28;20022;-92
2022/05/13 10:58:31;;;;;;;13.80;2.40;;;14.50;93.50;;;;;;4988680;28;20094;-92
2022/05/13 11:01:03;;;;;;;23.00;3.13;;;14.50;93.20;;;;;;4884184;29;20043;-93
2022/05/13 11:03:58;;;;;;;15.65;2.85;;;14.60;92.60;;;;;;4897834;29;20064;-96
2022/05/13 11:07:19;;;;;;;17.65;2.70;;;14.70;92.70;;;;;;4897835;29;20509;-94
2022/05/13 11:10:08;;;;;;;13.70;2.42;;;14.80;92.10;;;;;;4792949;29;20054;-94
2022/05/13 11:12:48;;;;;;;18.85;2.70;;;14.90;91.80;;;;;;4793332;29;20493;-95
2022/05/13 11:15:38;;;;;;;10.80;2.30;;;14.90;91.40;;;;;;4808905;29;20467;-94
2022/05/13 11:18:21;;;;;;;14.30;2.42;;;15.00;90.70;;;;;;4815058;29;20043;-93
2022/05/13 11:21:19;;;;;;;12.57;3.35;;;15.00;90.30;;;;;;4824286;29;20099;-93
2022/05/13 11:26:52;;;;;;;16.10;2.40;;;15.10;88.70;;;;;;4806879;29;20111;-95
2022/05/13 11:29:46;;;;;;;18.13;3.08;;;15.10;88.90;;;;;;4806090;29;20070;-92
2022/05/13 11:32:20;;;;;;;18.30;3.30;;;15.10;89.00;;;;;;4798408;29;20062;-93
2022/05/13 11:34:59;;;;;;;16.80;2.50;;;15.20;89.20;;;;;;4831385;29;20068;-94
2022/05/13 11:37:32;;;;;;;11.50;2.25;;;15.20;88.90;;;;;;4842799;29;20049;-93
2022/05/13 11:40:12;;;;;;;14.63;2.97;;;15.20;88.40;;;;;;4848333;29;20050;-92
2022/05/13 11:45:52;;;;;;;11.90;2.55;;;15.20;88.30;;;;;;4894258;28;20113;-94
2022/05/13 11:48:29;;;;;;;9.13;2.33;;;15.20;87.60;;;;;;4962761;28;20129;-94
2022/05/13 11:51:28;;;;;;;14.60;2.58;;;15.30;86.70;;;;;;4962010;28;20547;-92
2022/05/13 11:54:02;;;;;;;12.80;2.30;;;15.30;87.00;;;;;;4962476;28;20042;-92
2022/05/13 11:56:29;;;;;;;11.75;2.22;;;15.40;87.10;;;;;;4979701;28;20089;-92
2022/05/13 11:58:57;;;;;;;12.90;2.25;;;15.50;86.80;;;;;;4962258;28;20062;-92
2022/05/13 12:01:38;;;;;;;12.85;2.53;;;15.40;86.60;;;;;;4961321;28;20027;-92
2022/05/13 12:04:19;;;;;;;10.95;2.10;;;15.50;85.80;;;;;;4962002;28;20538;-94
2022/05/13 12:06:50;;;;;;;8.00;2.65;;;15.50;85.60;;;;;;4979056;28;20031;-93
2022/05/13 12:09:46;;;;;;;15.52;2.40;;;15.60;84.90;;;;;;4962052;28;20110;-93
2022/05/13 12:12:27;;;;;;;13.07;2.53;;;15.60;85.10;;;;;;4961594;28;20221;-91
2022/05/13 12:15:20;;;;;;;10.43;2.47;;;15.60;84.70;;;;;;4978952;28;20022;-93
2022/05/13 12:18:06;;;;;;;16.17;4.25;;;15.70;84.10;;;;;;4979352;28;20035;-91
2022/05/13 12:21:01;;;;;;;8.32;2.58;;;15.70;83.80;;;;;;4961755;28;20121;-90
2022/05/13 12:23:29;;;;;;;15.43;2.75;;;15.70;84.00;;;;;;4979067;28;20027;-92
2022/05/13 12:26:04;;;;;;;14.05;2.75;;;15.80;84.10;;;;;;4978429;28;20081;-92
2022/05/13 12:29:01;;;;;;;10.82;2.50;;;15.80;83.90;;;;;;4961060;28;20038;-92
2022/05/13 12:31:29;;;;;;;13.50;2.38;;;15.80;84.00;;;;;;4961685;28;20027;-93
2022/05/13 12:40:11;;;;;;;14.18;2.35;;;16.10;84.10;;;;;;4986000;28;20390;-91
2022/05/13 12:42:39;;;;;;;7.20;2.00;;;16.30;84.00;;;;;;4986694;28;20066;-92
2022/05/13 12:45:21;;;;;;;12.75;2.03;;;16.40;83.60;;;;;;4982411;28;20039;-91
2022/05/13 12:48:14;;;;;;;11.02;2.60;;;16.40;82.90;;;;;;4981035;28;20392;-92
2022/05/13 12:50:45;;;;;;;13.00;2.63;;;16.30;82.20;;;;;;4967344;28;20043;-92
2022/05/13 12:53:29;;;;;;;8.35;1.90;;;16.40;81.90;;;;;;4976414;28;20030;-91
2022/05/13 12:56:18;;;;;;;20.00;3.10;;;16.40;81.60;;;;;;4978186;28;20119;-94
2022/05/13 12:58:47;;;;;;;8.68;2.00;;;16.40;81.50;;;;;;4983255;28;20030;-92
2022/05/13 13:01:15;;;;;;;10.43;2.28;;;16.60;82.00;;;;;;4984730;28;20077;-93
2022/05/13 13:03:46;;;;;;;16.83;3.72;;;16.90;81.80;;;;;;4986024;28;20083;-94
2022/05/13 13:06:17;;;;;;;9.70;2.10;;;17.10;80.00;;;;;;4976759;28;20067;-93
2022/05/13 13:08:53;;;;;;;14.68;3.08;;;17.40;79.30;;;;;;4983003;28;20055;-92
2022/05/13 13:11:38;;;;;;;10.13;2.63;;;17.40;76.80;;;;;;4986054;28;20062;-93
2022/05/13 13:14:32;;;;;;;14.70;2.83;;;17.40;77.20;;;;;;4988285;28;20039;-94
2022/05/13 13:17:06;;;;;;;12.07;2.75;;;17.40;76.90;;;;;;4984493;28;20097;-94
2022/05/13 13:19:31;;;;;;;8.30;2.03;;;17.60;77.40;;;;;;4982025;28;20038;-94
2022/05/13 13:22:08;;;;;;;14.15;2.88;;;17.80;77.00;;;;;;4980700;28;20027;-94
2022/05/13 13:24:37;;;;;;;11.88;2.55;;;17.80;76.60;;;;;;4963784;29;20027;-93
2022/05/13 13:27:05;;;;;;;15.02;3.08;;;17.90;76.70;;;;;;4945114;29;20042;-93
2022/05/13 13:29:40;;;;;;;13.45;3.58;;;18.10;76.60;;;;;;4961627;29;20095;-94
2022/05/13 13:32:11;;;;;;;18.42;3.40;;;18.30;76.00;;;;;;4961643;29;20031;-94
2022/05/13 13:34:49;;;;;;;11.63;2.45;;;18.40;75.10;;;;;;4960773;28;20087;-94
2022/05/13 13:37:19;;;;;;;9.45;1.73;;;18.60;74.80;;;;;;4947953;29;20090;-93
2022/05/13 13:39:45;;;;;;;10.10;2.70;;;18.60;74.40;;;;;;4949941;29;20039;-94